Time;durP1;ratioP1;P1;durP2;ratioP2;P2;SDS_P1;SDS_P2;PMS_P1;PMS_P2;Temp;Humidity;BMP_temperature;BMP_pressure;BME280_temperature;BME280_humidity;BME280_pressure;Samples;Min_cycle;Max_cycle;Signal;HPM_P1;HPM_P2
2022/02/06 00:00:53;;;;;;;45.10;28.67;;;;;;;1.12;71.64;93959.66;5091161;28;20027;-42
2022/02/06 00:03:19;;;;;;;51.03;29.02;;;;;;;1.19;70.52;93963.94;5090561;28;20456;-42
2022/02/06 00:05:47;;;;;;;52.45;30.08;;;;;;;1.11;71.48;93958.16;5090785;28;20104;-42
2022/02/06 00:08:13;;;;;;;58.60;33.05;;;;;;;0.95;71.53;93963.38;5090287;28;20020;-42
2022/02/06 00:10:39;;;;;;;61.55;33.03;;;;;;;0.76;73.06;93971.78;5090663;28;20479;-42
2022/02/06 00:13:05;;;;;;;65.88;38.95;;;;;;;1.03;72.13;93961.75;5090384;28;20024;-42
2022/02/06 00:15:31;;;;;;;61.95;37.00;;;;;;;1.12;71.41;93965.09;5090343;28;20023;-41
2022/02/06 00:17:56;;;;;;;59.47;37.47;;;;;;;0.78;72.84;93982.91;5090124;28;20023;-42
2022/02/06 00:20:25;;;;;;;79.85;44.03;;;;;;;0.88;73.08;93975.41;5090508;28;20035;-42
2022/02/06 00:22:55;;;;;;;71.15;41.53;;;;;;;1.02;72.35;93980.03;5089972;28;20088;-43
2022/02/06 00:28:09;;;;;;;65.28;33.70;;;;;;;1.11;72.47;93977.19;5090566;28;20020;-42
2022/02/06 00:30:47;;;;;;;42.97;25.75;;;;;;;1.09;71.97;93973.44;5090189;28;20032;-42
2022/02/06 00:33:24;;;;;;;49.08;28.70;;;;;;;1.03;71.63;93972.63;5089928;28;20020;-42
2022/02/06 00:43:21;;;;;;;64.25;37.42;;;;;;;1.47;70.08;93979.34;5092270;28;20116;-41
2022/02/06 00:45:47;;;;;;;64.28;39.63;;;;;;;1.42;70.53;93973.88;5110822;28;20110;-42
2022/02/06 00:48:13;;;;;;;87.18;45.92;;;;;;;1.10;72.00;93983.13;5110737;28;20481;-42
2022/02/06 00:50:45;;;;;;;95.57;48.13;;;;;;;1.21;71.86;93978.53;5110670;28;20393;-42
2022/02/06 00:53:16;;;;;;;80.53;45.17;;;;;;;1.30;71.54;93977.69;5110719;28;20412;-42
2022/02/06 00:55:43;;;;;;;70.28;39.70;;;;;;;0.93;73.26;93974.00;5110369;28;20019;-42
2022/02/06 00:58:08;;;;;;;81.38;42.75;;;;;;;1.01;73.34;93978.56;5110215;28;20577;-42
2022/02/06 01:00:34;;;;;;;60.20;35.00;;;;;;;1.10;73.32;93973.00;5110643;28;20023;-41
2022/02/06 01:02:59;;;;;;;45.17;26.60;;;;;;;0.76;73.96;93973.72;5110274;28;20020;-42
2022/02/06 01:05:25;;;;;;;39.67;23.23;;;;;;;0.69;75.01;93974.88;5110275;28;20024;-42
2022/02/06 01:07:52;;;;;;;45.53;26.23;;;;;;;0.92;74.09;93986.81;5110265;28;20022;-41
2022/02/06 01:10:18;;;;;;;43.25;25.33;;;;;;;1.01;74.42;93986.72;5111528;28;20023;-42
2022/02/06 01:12:49;;;;;;;37.92;22.27;;;;;;;1.02;73.60;93982.03;5113327;28;20481;-42
2022/02/06 01:15:20;;;;;;;35.75;22.10;;;;;;;1.24;73.26;93974.88;5114520;28;20414;-42
2022/02/06 01:17:53;;;;;;;43.40;22.85;;;;;;;1.24;73.05;93977.59;5114370;28;20071;-42
2022/02/06 01:22:53;;;;;;;46.50;28.13;;;;;;;1.02;73.13;93973.88;5113998;28;20016;-42
2022/02/06 01:25:27;;;;;;;63.03;32.15;;;;;;;1.22;72.85;93979.31;5114288;28;20418;-42
2022/02/06 01:28:01;;;;;;;71.90;37.42;;;;;;;1.36;72.48;93981.22;5113960;28;20020;-42
2022/02/06 01:30:44;;;;;;;78.00;41.08;;;;;;;1.23;72.22;93973.41;5105789;28;20031;-42
2022/02/06 01:33:26;;;;;;;96.63;51.95;;;;;;;1.21;72.31;93959.50;5093479;28;20028;-42
2022/02/06 01:36:06;;;;;;;79.15;42.05;;;;;;;1.12;72.93;93962.38;5093010;28;20024;-42
2022/02/06 01:38:58;;;;;;;78.70;38.60;;;;;;;1.40;71.97;93960.75;5093043;28;20543;-42
2022/02/06 01:41:25;;;;;;;70.15;37.15;;;;;;;1.32;71.60;93939.88;5109130;28;20516;-42
2022/02/06 01:44:00;;;;;;;70.72;36.80;;;;;;;1.23;72.21;93965.25;5113808;27;20028;-41
2022/02/06 01:46:43;;;;;;;66.78;35.28;;;;;;;0.83;73.98;93967.91;5113536;28;20028;-41
2022/02/06 02:03:39;;;;;;;53.28;28.45;;;;;;;0.95;72.90;93966.09;5101736;28;20050;-41
2022/02/06 02:27:07;;;;;;;80.22;40.05;;;;;;;0.76;72.62;93958.19;5109580;28;20024;-42
2022/02/06 02:30:22;;;;;;;72.38;40.50;;;;;;;0.58;73.58;93961.16;5101380;28;20028;-41
2022/02/06 02:46:09;;;;;;;67.97;35.50;;;;;;;0.11;75.12;93966.09;5091494;28;20108;-41
2022/02/06 02:48:36;;;;;;;63.28;34.72;;;;;;;-0.09;76.35;93966.75;5092245;28;20020;-42
2022/02/06 02:51:05;;;;;;;68.97;36.58;;;;;;;-0.03;77.44;93971.03;5091805;28;20028;-41
2022/02/06 02:56:12;;;;;;;55.87;30.80;;;;;;;0.51;75.78;93977.84;5091890;28;20020;-42
2022/02/06 03:01:11;;;;;;;33.38;20.60;;;;;;;-0.03;76.78;93975.72;5091756;28;20067;-42
2022/02/06 03:03:39;;;;;;;39.85;21.30;;;;;;;0.17;77.20;93966.91;5092196;28;20103;-41
2022/02/06 03:06:07;;;;;;;38.47;21.77;;;;;;;0.32;76.87;93962.97;5091586;28;20023;-41
2022/02/06 03:08:34;;;;;;;40.83;24.52;;;;;;;0.43;77.43;93975.97;5091625;28;21044;-42
2022/02/06 03:11:03;;;;;;;36.35;20.63;;;;;;;0.57;76.37;93973.22;5091549;28;20036;-41
2022/02/06 03:13:45;;;;;;;38.95;21.25;;;;;;;0.73;76.04;93967.31;5090607;28;20036;-42
2022/02/06 03:18:44;;;;;;;59.38;30.90;;;;;;;0.66;76.04;93970.41;5091408;28;20020;-42
2022/02/06 03:21:19;;;;;;;44.83;26.77;;;;;;;0.78;75.23;93974.75;5091445;28;20023;-42
2022/02/06 03:23:50;;;;;;;42.85;26.08;;;;;;;0.96;74.89;93976.50;5091685;28;20057;-41
2022/02/06 03:26:18;;;;;;;46.72;29.85;;;;;;;0.96;74.06;93976.50;5091635;28;20024;-41
2022/02/06 03:28:44;;;;;;;48.17;28.27;;;;;;;1.01;73.97;93977.78;5091084;28;20016;-41
2022/02/06 03:31:09;;;;;;;44.80;26.05;;;;;;;1.08;73.81;93977.41;5091096;28;20031;-41
2022/02/06 03:33:35;;;;;;;44.60;27.58;;;;;;;1.19;73.24;93972.84;5104767;28;20104;-41
2022/02/06 03:36:00;;;;;;;44.53;26.00;;;;;;;1.29;72.96;93976.94;5107606;28;20024;-41
2022/02/06 03:38:26;;;;;;;46.45;25.73;;;;;;;1.12;73.63;93977.94;5090708;28;20053;-41
2022/02/06 03:40:57;;;;;;;47.28;26.50;;;;;;;0.97;74.22;93974.53;5090843;28;20036;-41
2022/02/06 03:43:34;;;;;;;49.50;25.20;;;;;;;0.67;75.20;93982.75;5091156;28;20016;-42
2022/02/06 03:46:08;;;;;;;44.92;24.48;;;;;;;0.65;75.83;93971.59;5090913;28;20035;-42
2022/02/06 03:48:51;;;;;;;40.75;24.83;;;;;;;0.62;75.96;93963.66;5091061;28;20029;-42
2022/02/06 03:51:19;;;;;;;44.50;24.50;;;;;;;0.90;75.04;93978.41;5090873;28;20552;-43
2022/02/06 03:53:47;;;;;;;36.28;20.98;;;;;;;1.00;74.31;93985.19;5090705;28;20024;-41
2022/02/06 03:56:13;;;;;;;34.47;20.65;;;;;;;0.96;74.89;93987.38;5090912;28;20085;-41
2022/02/06 03:58:38;;;;;;;34.47;18.30;;;;;;;0.94;74.77;93987.09;5090819;28;20024;-41
2022/02/06 04:01:04;;;;;;;43.72;26.98;;;;;;;0.77;75.50;93981.44;5090548;28;20493;-41
2022/02/06 04:03:29;;;;;;;38.67;20.85;;;;;;;0.88;74.89;93980.09;5090896;28;20024;-41
2022/02/06 04:05:55;;;;;;;112.88;56.15;;;;;;;0.85;75.64;93975.59;5090812;28;20025;-41
2022/02/06 04:08:20;;;;;;;72.60;37.70;;;;;;;0.89;76.02;93981.59;5090813;28;20650;-41
2022/02/06 04:10:49;;;;;;;73.03;41.30;;;;;;;0.96;75.58;93983.91;5090322;28;20028;-41
2022/02/06 04:13:18;;;;;;;;;;;;;;;1.07;74.72;93987.53;5091298;28;20020;-41
2022/02/06 04:15:47;;;;;;;68.82;38.15;;;;;;;1.12;74.71;93986.09;5089746;28;19908;-41
2022/02/06 04:18:21;;;;;;;76.45;41.00;;;;;;;0.91;74.33;93981.88;5089314;28;20591;-41
2022/02/06 04:20:47;;;;;;;78.70;45.53;;;;;;;0.93;74.36;93993.00;5090300;28;20494;-42
2022/02/06 04:23:13;;;;;;;79.65;44.28;;;;;;;0.96;74.30;93990.09;5090300;28;20069;-41
2022/02/06 04:25:38;;;;;;;66.93;37.03;;;;;;;0.59;75.17;93967.31;5090223;28;20024;-41
2022/02/06 04:28:04;;;;;;;62.30;35.15;;;;;;;0.63;75.31;93986.88;5090523;28;20024;-41
2022/02/06 04:30:29;;;;;;;71.57;36.70;;;;;;;0.71;74.70;93990.72;5110012;28;20038;-42
2022/02/06 04:32:55;;;;;;;67.95;35.63;;;;;;;0.72;74.89;93984.81;5110746;28;20027;-41
2022/02/06 04:35:29;;;;;;;71.65;39.15;;;;;;;0.79;75.00;93986.38;5110489;28;20035;-41
2022/02/06 05:30:37;;;;;;;40.10;22.67;;;;;;;0.40;75.78;94017.66;5093700;28;20039;-41
2022/02/06 05:33:03;;;;;;;44.40;25.38;;;;;;;0.20;75.53;94014.84;5093370;28;20473;-42
2022/02/06 05:35:28;;;;;;;47.58;25.92;;;;;;;0.36;75.63;94017.09;5093393;28;20039;-41
2022/02/06 05:37:54;;;;;;;47.83;28.40;;;;;;;0.44;75.82;94021.69;5092879;28;20048;-42
2022/02/06 05:40:19;;;;;;;64.40;35.75;;;;;;;0.64;74.60;94021.75;5100351;28;20032;-42
2022/02/06 05:42:45;;;;;;;49.67;26.52;;;;;;;0.67;74.01;94014.63;5113839;28;20102;-41
2022/02/06 05:45:11;;;;;;;53.80;31.67;;;;;;;0.55;74.40;94024.56;5113461;28;20428;-42
2022/02/06 05:47:37;;;;;;;39.85;22.55;;;;;;;0.53;75.46;94027.00;5112473;28;20027;-41
2022/02/06 05:50:04;;;;;;;47.03;25.05;;;;;;;0.46;74.76;94037.50;5113395;28;20028;-41
2022/02/06 05:52:30;;;;;;;42.03;23.70;;;;;;;0.51;75.97;94034.13;5109551;28;20035;-43
2022/02/06 05:54:55;;;;;;;36.00;22.05;;;;;;;0.45;75.52;94034.06;5094058;28;20470;-41
2022/02/06 05:57:22;;;;;;;34.00;20.10;;;;;;;0.52;76.03;94041.81;5093718;28;20020;-42
2022/02/06 05:59:47;;;;;;;40.95;23.35;;;;;;;0.56;76.68;94042.34;5113446;28;20036;-42
2022/02/06 06:02:13;;;;;;;50.25;28.27;;;;;;;0.70;75.92;94043.56;5113125;28;20046;-42
2022/02/06 06:04:38;;;;;;;61.90;32.63;;;;;;;0.65;75.96;94023.25;5113463;28;20020;-41
2022/02/06 06:07:04;;;;;;;85.45;46.00;;;;;;;0.87;76.00;94043.84;5113009;28;20023;-42
2022/02/06 06:09:29;;;;;;;84.32;42.58;;;;;;;0.94;75.47;94041.47;5113163;28;20026;-42
2022/02/06 06:11:55;;;;;;;301.92;141.57;;;;;;;1.05;74.54;94057.19;5113432;28;20027;-42
2022/02/06 06:14:21;;;;;;;101.85;52.10;;;;;;;1.16;73.99;94055.38;5113408;28;20668;-41
2022/02/06 06:16:46;;;;;;;63.28;35.05;;;;;;;1.24;73.83;94048.31;5113225;28;20416;-41
2022/02/06 06:19:13;;;;;;;65.43;33.38;;;;;;;1.27;73.84;94041.19;5113062;28;20031;-41
2022/02/06 06:21:42;;;;;;;52.88;30.15;;;;;;;1.28;73.68;94046.16;5112923;28;20027;-42
2022/02/06 06:24:07;;;;;;;;;;;;;;;1.30;74.14;94060.03;5113768;28;20051;-42
2022/02/06 06:26:37;;;;;;;45.15;27.30;;;;;;;1.33;74.88;94052.88;5094332;28;19965;-44
2022/02/06 06:29:04;;;;;;;54.50;28.85;;;;;;;1.43;74.09;94054.25;5091399;28;20020;-43
2022/02/06 06:31:30;;;;;;;54.28;27.95;;;;;;;1.57;74.38;94047.25;5092598;28;20032;-41
2022/02/06 06:33:56;;;;;;;40.05;24.63;;;;;;;1.70;74.10;94055.84;5092749;28;20075;-41
2022/02/06 06:36:21;;;;;;;44.42;23.98;;;;;;;1.73;73.43;94060.34;5096272;28;20016;-42
2022/02/06 06:38:50;;;;;;;50.97;28.08;;;;;;;1.92;73.46;94061.53;5091792;28;20047;-41
2022/02/06 06:41:15;;;;;;;80.47;44.20;;;;;;;1.99;73.23;94072.03;5092476;28;20055;-42
2022/02/06 06:43:40;;;;;;;112.10;54.85;;;;;;;2.00;73.77;94066.09;5092263;28;20474;-42
2022/02/06 06:46:06;;;;;;;129.52;68.20;;;;;;;2.07;73.11;94064.94;5092221;28;20112;-42
2022/02/06 06:48:31;;;;;;;88.72;50.25;;;;;;;2.17;73.18;94069.75;5092223;28;20447;-42
2022/02/06 06:50:57;;;;;;;72.90;43.30;;;;;;;2.22;72.97;94071.78;5092124;28;20432;-41
2022/02/06 06:53:22;;;;;;;81.45;46.97;;;;;;;2.31;72.72;94076.34;5092208;28;20024;-42
2022/02/06 06:55:55;;;;;;;66.90;32.30;;;;;;;2.35;72.78;94078.84;5091820;28;20416;-42
2022/02/06 06:58:34;;;;;;;41.10;26.38;;;;;;;2.42;72.81;94079.16;5091760;28;20683;-42
2022/02/06 07:03:26;;;;;;;43.78;22.92;;;;;;;2.48;72.96;94087.38;5092131;28;20040;-43
2022/02/06 07:05:52;;;;;;;53.58;31.23;;;;;;;2.43;73.41;94088.81;5091916;28;20024;-43
2022/02/06 07:08:17;;;;;;;70.57;40.90;;;;;;;2.42;73.09;94076.44;5089160;28;20030;-44
2022/02/06 07:10:44;;;;;;;71.28;27.75;;;;;;;2.58;72.97;94077.84;5091737;28;20032;-43
2022/02/06 07:13:09;;;;;;;40.22;25.42;;;;;;;2.67;72.74;94083.84;5091573;28;20032;-43
2022/02/06 07:15:35;;;;;;;45.35;26.63;;;;;;;2.71;72.26;94078.19;5090596;28;20196;-43
2022/02/06 07:18:00;;;;;;;40.83;25.83;;;;;;;2.68;72.83;94071.72;5091101;28;20023;-41
2022/02/06 07:20:25;;;;;;;49.08;28.40;;;;;;;2.89;71.90;94077.84;5091329;28;20027;-42
2022/02/06 07:22:51;;;;;;;55.50;31.65;;;;;;;2.81;72.05;94074.81;5109794;28;20032;-42
2022/02/06 07:25:16;;;;;;;56.28;33.22;;;;;;;2.91;72.01;94080.84;5111640;28;20035;-41
2022/02/06 07:27:47;;;;;;;53.42;30.05;;;;;;;2.73;72.39;94084.66;5111878;28;20019;-41
2022/02/06 07:30:13;;;;;;;48.58;28.23;;;;;;;2.86;71.85;94068.66;5110858;28;20031;-42
2022/02/06 07:32:39;;;;;;;61.72;33.28;;;;;;;2.64;73.41;94073.19;5108776;28;20427;-42
2022/02/06 07:35:08;;;;;;;55.00;32.33;;;;;;;2.54;73.84;94074.56;5098520;28;20028;-41
2022/02/06 07:37:35;;;;;;;53.13;31.60;;;;;;;2.45;74.03;94083.63;5105014;28;20051;-42
2022/02/06 07:40:00;;;;;;;56.38;31.25;;;;;;;2.73;74.38;94084.66;5110005;28;20173;-41
2022/02/06 07:42:26;;;;;;;56.45;31.67;;;;;;;3.11;73.84;94080.00;5110039;28;20114;-42
2022/02/06 07:44:51;;;;;;;36.38;22.80;;;;;;;3.65;72.42;94074.16;5110959;28;20034;-43
2022/02/06 07:47:23;;;;;;;37.83;21.55;;;;;;;3.98;69.57;94089.94;5093048;28;20103;-43
2022/02/06 07:49:50;;;;;;;35.30;21.13;;;;;;;3.72;69.79;94092.81;5089647;28;20472;-42
2022/02/06 07:52:26;;;;;;;29.88;19.67;;;;;;;3.66;69.93;94089.28;5100272;28;20035;-43
2022/02/06 07:54:52;;;;;;;53.80;30.42;;;;;;;3.56;70.99;94090.72;5104506;28;20054;-42
2022/02/06 07:57:18;;;;;;;30.23;18.33;;;;;;;3.70;70.32;94089.06;5084928;28;20119;-42
2022/02/06 07:59:44;;;;;;;27.33;17.83;;;;;;;3.88;69.34;94093.38;5085909;28;20412;-42
2022/02/06 08:02:10;;;;;;;55.53;32.45;;;;;;;3.89;69.48;94097.59;5085839;28;20040;-42
2022/02/06 08:04:36;;;;;;;37.22;24.85;;;;;;;4.43;68.12;94097.06;5084890;28;20024;-42
2022/02/06 08:07:02;;;;;;;41.28;26.45;;;;;;;4.72;66.29;94101.31;5085355;28;20028;-43
2022/02/06 08:12:13;;;;;;;42.35;27.30;;;;;;;4.52;66.25;94066.00;5095883;28;20038;-41
2022/02/06 08:14:52;;;;;;;36.63;20.92;;;;;;;5.02;65.09;94082.47;5104617;28;20027;-42
2022/02/06 08:17:38;;;;;;;29.90;16.85;;;;;;;6.09;62.39;94088.03;5105917;28;20083;-42
2022/02/06 08:20:07;;;;;;;32.38;19.10;;;;;;;6.88;58.53;94087.88;5105743;28;20039;-41
2022/02/06 08:22:33;;;;;;;48.90;30.85;;;;;;;6.18;59.31;94085.00;5106083;28;20512;-42
2022/02/06 08:24:58;;;;;;;28.58;18.13;;;;;;;6.47;59.82;94080.88;5106207;28;20038;-42
2022/02/06 08:27:25;;;;;;;49.45;27.52;;;;;;;7.82;56.51;94082.84;5106007;28;20027;-41
2022/02/06 08:29:51;;;;;;;25.95;17.75;;;;;;;9.48;51.51;94080.63;5105858;28;20028;-41
2022/02/06 08:32:19;;;;;;;32.80;20.80;;;;;;;10.64;47.29;94075.69;5104516;28;20027;-42
2022/02/06 08:34:51;;;;;;;55.15;31.23;;;;;;;11.42;45.55;94078.19;5106477;28;20111;-42
2022/02/06 08:37:16;;;;;;;20.50;14.82;;;;;;;13.20;42.66;94078.94;5105526;28;20057;-42
2022/02/06 08:39:43;;;;;;;18.40;14.52;;;;;;;14.26;39.60;94083.25;5106060;28;20448;-42
2022/02/06 08:42:11;;;;;;;19.92;14.60;;;;;;;14.66;38.89;94075.03;5105730;28;20044;-42
2022/02/06 08:44:37;;;;;;;19.85;14.43;;;;;;;15.78;36.57;94083.41;5104970;28;20051;-42
2022/02/06 08:47:05;;;;;;;17.42;13.85;;;;;;;16.46;34.34;94085.59;5106003;28;20024;-42
2022/02/06 08:49:30;;;;;;;17.45;13.93;;;;;;;16.68;32.96;94099.34;5105950;28;20028;-42
2022/02/06 08:51:56;;;;;;;18.95;14.25;;;;;;;16.86;33.70;94096.56;5106135;28;20024;-42
2022/02/06 08:54:25;;;;;;;16.27;13.25;;;;;;;17.33;32.33;94096.94;5105976;28;20020;-42
2022/02/06 08:56:51;;;;;;;15.70;13.35;;;;;;;17.38;32.00;94093.16;5106045;28;20062;-42
2022/02/06 08:59:17;;;;;;;18.40;14.98;;;;;;;17.88;31.58;94093.59;5105966;28;20035;-42
2022/02/06 09:01:42;;;;;;;16.17;13.30;;;;;;;18.06;29.91;94094.97;5106423;28;20039;-43
2022/02/06 09:04:08;;;;;;;17.35;12.85;;;;;;;18.52;29.97;94094.25;5106016;28;20028;-43
2022/02/06 09:06:36;;;;;;;18.48;13.65;;;;;;;19.23;28.52;94083.41;5105322;28;20551;-42
2022/02/06 09:09:03;;;;;;;15.55;12.38;;;;;;;19.68;27.38;94086.00;5106014;28;20174;-42
2022/02/06 09:11:29;;;;;;;17.58;13.43;;;;;;;20.09;27.58;94086.03;5105280;28;20034;-43
2022/02/06 09:13:55;;;;;;;14.60;11.98;;;;;;;20.17;26.97;94089.38;5091931;28;20773;-42
2022/02/06 09:16:26;;;;;;;17.50;11.98;;;;;;;19.84;26.35;94094.81;5092473;28;20035;-42
2022/02/06 09:18:52;;;;;;;15.27;12.65;;;;;;;19.78;26.09;94093.63;5091332;28;20036;-43
2022/02/06 09:21:18;;;;;;;15.63;13.35;;;;;;;20.01;26.37;94091.06;5096226;28;20027;-44
2022/02/06 09:23:43;;;;;;;17.70;12.80;;;;;;;19.59;25.86;94081.16;5091986;28;20016;-41
2022/02/06 09:26:09;;;;;;;15.02;11.20;;;;;;;17.30;28.42;94086.91;5086679;28;20515;-42
2022/02/06 09:28:34;;;;;;;20.60;14.02;;;;;;;18.38;29.03;94082.00;5087601;28;20020;-40
2022/02/06 09:31:00;;;;;;;15.20;12.55;;;;;;;19.07;27.64;94082.22;5088891;28;20031;-41
2022/02/06 09:35:51;;;;;;;15.80;12.63;;;;;;;19.75;26.33;94061.22;5089078;28;20420;-41
2022/02/06 09:38:17;;;;;;;16.23;12.38;;;;;;;19.98;25.60;94067.03;5090906;28;20040;-41
2022/02/06 09:40:45;;;;;;;14.40;12.50;;;;;;;20.47;25.27;94057.06;5091219;28;20405;-44
2022/02/06 09:43:13;;;;;;;14.88;12.50;;;;;;;20.13;24.88;94050.59;5090975;28;20031;-48
2022/02/06 09:45:41;;;;;;;16.25;13.30;;;;;;;20.12;25.58;94054.72;5091149;28;20069;-43
2022/02/06 09:48:09;;;;;;;20.20;15.30;;;;;;;20.31;25.29;94040.63;5091226;28;20028;-43
2022/02/06 09:50:35;;;;;;;16.73;13.93;;;;;;;19.91;25.74;94051.88;5091167;28;20028;-43
2022/02/06 09:53:00;;;;;;;16.85;12.45;;;;;;;20.46;24.50;94050.75;5091438;28;20445;-42
2022/02/06 09:55:26;;;;;;;13.48;11.40;;;;;;;19.86;24.82;94033.28;5090985;28;20024;-42
2022/02/06 09:58:00;;;;;;;50.92;13.18;;;;;;;19.98;25.44;94053.00;5090657;28;20028;-42
2022/02/06 10:00:29;;;;;;;13.63;12.15;;;;;;;20.28;25.33;94043.91;5090698;28;20038;-42
2022/02/06 10:03:02;;;;;;;12.77;11.00;;;;;;;20.48;23.37;94042.47;5090565;28;20032;-42
2022/02/06 10:05:33;;;;;;;14.52;11.52;;;;;;;20.33;24.59;94023.94;5090614;28;20497;-42
2022/02/06 10:08:20;;;;;;;13.23;10.35;;;;;;;21.14;24.41;94038.41;5095912;28;20035;-42
2022/02/06 10:10:58;;;;;;;14.20;10.63;;;;;;;21.01;24.16;94029.78;5093248;28;20031;-42
2022/02/06 10:13:23;;;;;;;12.73;10.70;;;;;;;21.17;23.78;94036.47;5095625;28;20484;-42
2022/02/06 10:15:49;;;;;;;15.02;11.48;;;;;;;21.92;23.50;94027.16;5107020;28;20111;-42
2022/02/06 10:18:15;;;;;;;17.83;11.93;;;;;;;22.40;22.59;94032.88;5093877;28;20039;-42
2022/02/06 10:20:43;;;;;;;14.48;11.30;;;;;;;21.91;21.38;94020.78;5099028;28;20527;-42
2022/02/06 10:23:20;;;;;;;15.13;11.60;;;;;;;21.77;21.64;93998.13;5098401;28;20102;-42
2022/02/06 10:25:49;;;;;;;14.15;11.20;;;;;;;22.24;22.06;94021.38;5098217;28;20028;-43
2022/02/06 10:28:34;;;;;;;16.02;10.90;;;;;;;22.13;21.16;94010.16;5098626;28;20031;-42
2022/02/06 10:31:01;;;;;;;16.98;11.98;;;;;;;;;;5097909;28;20059;-42
2022/02/06 10:33:46;;;;;;;12.80;9.88;;;;;;;21.61;21.79;94004.84;5099624;28;20134;-42
2022/02/06 10:36:12;;;;;;;20.08;13.05;;;;;;;21.30;22.39;93998.66;5099289;28;20058;-42
2022/02/06 10:38:37;;;;;;;16.35;13.05;;;;;;;21.37;22.88;93995.66;5097229;28;20067;-42
2022/02/06 10:41:18;;;;;;;18.48;12.32;;;;;;;21.73;21.38;93995.09;5098441;28;20416;-43
2022/02/06 10:44:10;;;;;;;16.58;12.60;;;;;;;21.72;21.44;93987.25;5098698;28;20493;-43
2022/02/06 10:46:57;;;;;;;16.05;13.45;;;;;;;21.57;20.32;93977.22;5097481;28;20038;-43
2022/02/06 10:49:24;;;;;;;14.65;9.75;;;;;;;21.43;20.59;93984.03;5099049;27;20016;-42
2022/02/06 10:52:01;;;;;;;13.18;10.27;;;;;;;21.22;22.22;93984.13;5096577;28;20035;-42
2022/02/06 10:54:29;;;;;;;10.85;8.63;;;;;;;21.46;20.30;93974.41;5098970;28;20148;-42
2022/02/06 10:57:05;;;;;;;9.60;7.53;;;;;;;20.46;20.64;93966.59;5093078;28;20034;-42
2022/02/06 10:59:42;;;;;;;10.93;8.85;;;;;;;20.24;21.35;93973.53;5102819;28;20036;-42
2022/02/06 11:02:20;;;;;;;25.90;15.77;;;;;;;20.42;21.50;93963.53;5100157;28;20032;-42
2022/02/06 11:05:15;;;;;;;12.70;9.13;;;;;;;20.72;21.66;93954.28;5099635;28;20020;-42
2022/02/06 11:08:03;;;;;;;15.40;10.95;;;;;;;21.03;21.68;93952.06;5099896;28;20056;-41
2022/02/06 11:10:31;;;;;;;10.73;8.40;;;;;;;20.66;21.16;93945.44;5095179;28;20039;-42
2022/02/06 11:12:59;;;;;;;9.77;7.80;;;;;;;20.85;21.55;93934.06;5096834;28;20110;-41
2022/02/06 11:15:31;;;;;;;17.58;12.70;;;;;;;21.08;21.22;93939.75;5098237;28;20034;-42
2022/02/06 11:18:12;;;;;;;8.73;6.28;;;;;;;21.26;19.27;93933.81;5100049;28;20031;-41
2022/02/06 11:21:06;;;;;;;12.18;7.72;;;;;;;19.04;20.57;93927.41;5097553;28;20031;-42
2022/02/06 11:23:37;;;;;;;10.35;6.70;;;;;;;18.92;19.98;93921.72;5094051;28;20059;-41
2022/02/06 11:26:23;;;;;;;7.30;5.97;;;;;;;18.41;21.43;93922.19;5094941;28;20107;-42
2022/02/06 11:28:52;;;;;;;8.75;5.63;;;;;;;18.60;20.64;93908.19;5101333;28;20046;-42
2022/02/06 11:31:18;;;;;;;7.65;6.07;;;;;;;18.15;21.75;93907.03;5096498;28;20027;-42
2022/02/06 11:33:44;;;;;;;8.40;5.40;;;;;;;18.41;20.77;93899.09;5101337;27;20036;-42
2022/02/06 11:42:56;;;;;;;5.43;4.43;;;;;;;18.08;19.96;93896.72;5098822;28;20028;-41
2022/02/06 11:45:28;;;;;;;6.72;3.50;;;;;;;18.40;19.15;93881.59;5098748;28;20039;-42
2022/02/06 11:48:04;;;;;;;8.50;6.78;;;;;;;18.84;17.18;93881.25;5097498;28;20559;-43
2022/02/06 11:50:33;;;;;;;4.65;3.85;;;;;;;18.17;18.90;93872.91;5086302;28;20624;-42
2022/02/06 11:53:01;;;;;;;5.45;4.55;;;;;;;17.73;19.79;93864.06;5084964;28;20161;-41
2022/02/06 11:55:47;;;;;;;6.70;4.57;;;;;;;17.98;17.91;93872.91;5085636;28;20028;-42
2022/02/06 11:58:34;;;;;;;5.18;4.20;;;;;;;17.77;18.61;93867.88;5086511;28;20366;-42
2022/02/06 12:01:06;;;;;;;9.93;6.25;;;;;;;17.01;18.82;93862.06;5086684;28;20480;-42
2022/02/06 12:03:56;;;;;;;10.55;6.20;;;;;;;16.95;18.39;93858.81;5086047;28;20845;-42
2022/02/06 12:06:24;;;;;;;8.45;5.35;;;;;;;16.88;18.58;93852.03;5091709;28;20019;-42
2022/02/06 12:08:58;;;;;;;10.60;5.97;;;;;;;16.88;20.44;93860.41;5106172;27;20840;-42
2022/02/06 12:11:28;;;;;;;4.60;3.33;;;;;;;16.82;20.19;93854.38;5106500;28;20710;-42
2022/02/06 12:14:13;;;;;;;5.00;3.45;;;;;;;17.21;21.72;93849.66;5106337;28;20035;-42
2022/02/06 12:16:57;;;;;;;4.22;3.45;;;;;;;16.74;19.29;93845.34;5106250;28;20036;-42
2022/02/06 12:19:34;;;;;;;3.60;2.95;;;;;;;16.91;21.20;93827.84;5104794;28;20500;-43
2022/02/06 12:22:27;;;;;;;5.47;2.85;;;;;;;17.27;20.72;93834.13;5106192;28;20035;-42
2022/02/06 12:24:53;;;;;;;6.20;3.60;;;;;;;17.26;21.02;93824.25;5106484;28;20027;-42
2022/02/06 12:27:23;;;;;;;6.72;3.50;;;;;;;17.36;19.09;93827.81;5106889;28;20031;-42
2022/02/06 12:29:52;;;;;;;5.43;4.70;;;;;;;16.49;20.57;93828.03;5100762;28;20416;-42
2022/02/06 12:32:32;;;;;;;4.25;3.35;;;;;;;16.31;19.14;93821.03;5088668;28;20095;-41
2022/02/06 12:37:42;;;;;;;4.20;2.70;;;;;;;16.70;19.84;93808.09;5103854;28;20108;-42
2022/02/06 12:40:15;;;;;;;5.18;3.17;;;;;;;16.84;20.77;93812.69;5107019;28;20419;-44
2022/02/06 12:42:45;;;;;;;8.00;4.10;;;;;;;16.56;21.05;93819.63;5106582;28;20515;-41
2022/02/06 12:45:13;;;;;;;5.57;3.30;;;;;;;16.35;21.58;93818.59;5106934;28;20501;-43
2022/02/06 12:47:44;;;;;;;3.40;2.70;;;;;;;16.58;19.56;93811.41;5106669;28;20050;-43
2022/02/06 12:50:33;;;;;;;4.55;3.40;;;;;;;16.22;21.79;93810.59;5106298;28;20038;-42
2022/02/06 12:52:59;;;;;;;4.22;3.00;;;;;;;15.89;23.70;93810.06;5106407;28;20064;-42
2022/02/06 12:55:30;;;;;;;6.43;5.28;;;;;;;15.28;21.14;93807.16;5107102;28;20143;-42
2022/02/06 12:57:56;;;;;;;6.60;4.45;;;;;;;15.60;22.50;93797.94;5106502;28;20032;-41
2022/02/06 13:00:50;;;;;;;8.40;5.80;;;;;;;15.65;22.85;93797.72;5105871;28;20054;-42
2022/02/06 13:03:18;;;;;;;5.90;4.82;;;;;;;15.73;23.71;93790.00;5106051;28;20031;-42
2022/02/06 13:06:18;;;;;;;8.68;3.63;;;;;;;15.59;22.84;93794.44;5107727;28;20035;-41
2022/02/06 13:08:44;;;;;;;8.75;3.42;;;;;;;15.15;23.99;93794.31;5102643;28;20028;-42
2022/02/06 13:11:22;;;;;;;8.98;5.53;;;;;;;15.20;23.08;93784.25;5111398;28;20423;-42
2022/02/06 13:14:20;;;;;;;7.07;5.63;;;;;;;15.16;24.10;93779.09;5110872;28;20508;-42
2022/02/06 13:35:37;;;;;;;12.50;4.10;;;;;;;14.26;24.20;93749.22;5105582;28;20066;-42
2022/02/06 13:38:01;;;;;;;6.38;3.92;;;;;;;14.36;24.46;93755.66;5089981;28;20508;-42
2022/02/06 13:40:31;;;;;;;8.57;4.18;;;;;;;14.09;25.22;93746.38;5090970;28;20039;-41
2022/02/06 13:43:04;;;;;;;17.50;5.43;;;;;;;14.16;26.06;93745.59;5091087;28;20453;-42
2022/02/06 13:45:33;;;;;;;5.15;3.75;;;;;;;14.23;26.05;93747.56;5090667;28;20035;-41
2022/02/06 13:48:00;;;;;;;9.82;6.97;;;;;;;14.13;25.16;93730.06;5111269;28;20027;-41
2022/02/06 13:50:28;;;;;;;5.90;4.32;;;;;;;14.07;25.36;93733.06;5113441;28;20031;-42
2022/02/06 13:53:07;;;;;;;10.43;6.35;;;;;;;13.75;25.55;93733.06;5112196;28;20027;-41
2022/02/06 13:55:32;;;;;;;9.07;4.10;;;;;;;13.74;25.37;93725.28;5113404;28;20512;-42
2022/02/06 13:57:57;;;;;;;10.50;5.55;;;;;;;13.73;25.64;93723.84;5113344;28;20026;-42
2022/02/06 14:00:23;;;;;;;11.52;5.97;;;;;;;13.76;27.22;93725.47;5112324;28;20105;-42
2022/02/06 14:02:57;;;;;;;8.70;3.78;;;;;;;13.71;26.15;93716.03;5102849;28;20027;-42
2022/02/06 14:05:26;;;;;;;8.38;5.20;;;;;;;13.56;27.40;93716.88;5102145;28;20027;-42
2022/02/06 14:08:01;;;;;;;7.75;5.55;;;;;;;13.47;27.04;93709.13;5109915;28;20111;-42
2022/02/06 14:10:32;;;;;;;4.97;3.80;;;;;;;13.48;27.28;93715.44;5100259;28;20489;-42
2022/02/06 14:12:58;;;;;;;13.45;9.23;;;;;;;13.32;27.39;93711.25;5101888;28;20102;-42
2022/02/06 14:15:28;;;;;;;67.32;44.72;;;;;;;13.18;27.72;93710.00;5102793;28;20593;-42
2022/02/06 14:17:56;;;;;;;36.45;22.73;;;;;;;13.28;28.04;93714.41;5102729;28;20031;-43